createdAt,value
2022-10-19T00:01:07.726Z,20.05
2022-10-19T00:03:35.862Z,20.08
2022-10-19T00:06:21.900Z,19.97
2022-10-19T00:08:48.363Z,19.95
2022-10-19T00:11:15.047Z,19.95
2022-10-19T00:13:41.502Z,19.85
2022-10-19T00:16:11.747Z,19.86
2022-10-19T00:18:38.730Z,19.85
2022-10-19T00:21:07.547Z,19.88
2022-10-19T00:23:34.319Z,19.89
2022-10-19T00:26:01.047Z,19.89
2022-10-19T00:28:28.709Z,19.86
2022-10-19T00:30:55.311Z,19.83
2022-10-19T00:33:21.797Z,19.85
2022-10-19T00:35:50.570Z,19.81
2022-10-19T00:38:18.392Z,19.82
2022-10-19T00:40:46.022Z,19.77
2022-10-19T00:43:25.192Z,19.67
2022-10-19T00:45:51.831Z,19.69
2022-10-19T00:48:27.221Z,19.61
2022-10-19T00:50:58.248Z,19.64
2022-10-19T00:53:28.651Z,19.67
2022-10-19T00:55:57.696Z,19.66
2022-10-19T00:58:24.421Z,19.62
2022-10-19T01:00:51.087Z,19.61
2022-10-19T01:03:18.255Z,19.53
2022-10-19T01:05:44.750Z,19.58
2022-10-19T01:08:12.036Z,19.58
2022-10-19T01:11:14.721Z,19.58
2022-10-19T01:14:01.114Z,19.54
2022-10-19T01:16:52.956Z,19.43
2022-10-19T01:19:34.557Z,19.48
2022-10-19T01:22:31.270Z,19.42
2022-10-19T01:25:19.381Z,19.35
2022-10-19T01:28:07.539Z,19.35
2022-10-19T01:30:52.716Z,19.30
2022-10-19T01:33:37.556Z,19.29
2022-10-19T01:36:37.044Z,19.29
2022-10-19T01:39:23.052Z,19.25
2022-10-19T01:42:01.900Z,19.24
2022-10-19T01:44:31.316Z,19.13
2022-10-19T01:47:08.434Z,19.09
2022-10-19T01:49:41.829Z,19.03
2022-10-19T01:52:13.910Z,19.09
2022-10-19T01:54:47.248Z,19.03
2022-10-19T01:57:23.534Z,19.08
2022-10-19T01:59:53.216Z,19.14
2022-10-19T02:02:21.471Z,19.09
2022-10-19T02:04:50.902Z,19.05
2022-10-19T02:07:21.627Z,19.03
2022-10-19T02:09:48.485Z,18.98
2022-10-19T02:12:16.849Z,18.92
2022-10-19T02:14:47.545Z,18.91
2022-10-19T02:17:23.927Z,18.89
2022-10-19T02:19:51.465Z,18.81
2022-10-19T02:22:18.047Z,18.65
2022-10-19T02:24:44.571Z,18.75
2022-10-19T02:27:11.512Z,18.71
2022-10-19T02:29:39.522Z,18.78
2022-10-19T02:32:07.099Z,18.66
2022-10-19T02:34:35.389Z,18.71
2022-10-19T02:37:02.106Z,18.68
2022-10-19T02:39:29.334Z,18.72
2022-10-19T02:42:11.813Z,18.71
2022-10-19T02:44:50.644Z,18.69
2022-10-19T02:47:19.630Z,18.69
2022-10-19T02:49:49.055Z,18.74
2022-10-19T02:52:15.501Z,18.74
2022-10-19T02:54:44.493Z,18.65
2022-10-19T02:57:24.266Z,18.67
2022-10-19T02:59:52.147Z,18.65
2022-10-19T03:02:20.435Z,18.62
2022-10-19T03:07:20.971Z,18.57
2022-10-19T03:09:47.728Z,18.54
2022-10-19T03:12:14.913Z,18.63
2022-10-19T03:14:41.629Z,18.60
2022-10-19T03:17:08.267Z,18.59
2022-10-19T03:19:36.125Z,18.57
2022-10-19T03:22:02.957Z,18.48
2022-10-19T03:24:30.579Z,18.48
2022-10-19T03:26:57.502Z,18.30
2022-10-19T03:29:24.008Z,18.43
2022-10-19T03:31:50.523Z,18.34
2022-10-19T03:34:17.208Z,18.37
2022-10-19T03:36:43.672Z,18.35
2022-10-19T03:39:13.161Z,18.34
2022-10-19T03:41:40.082Z,18.34
2022-10-19T03:44:08.960Z,18.32
2022-10-19T03:46:36.587Z,18.40
2022-10-19T03:49:04.343Z,18.32
2022-10-19T03:51:32.464Z,18.41
2022-10-19T03:54:03.321Z,18.42
2022-10-19T03:56:31.687Z,18.49
2022-10-19T03:59:00.835Z,18.41
2022-10-19T04:01:36.434Z,18.36
2022-10-19T04:04:09.860Z,18.37
2022-10-19T04:06:39.621Z,18.39
2022-10-19T04:09:08.248Z,18.29
2022-10-19T04:11:35.871Z,18.27
2022-10-19T04:14:31.921Z,18.31
2022-10-19T04:17:00.845Z,18.34
2022-10-19T04:19:27.326Z,18.39
2022-10-19T04:21:53.980Z,18.30
2022-10-19T04:24:20.481Z,18.34
2022-10-19T04:26:50.613Z,18.26
2022-10-19T04:29:18.893Z,18.24
2022-10-19T04:31:45.985Z,18.19
2022-10-19T04:34:12.493Z,18.17
2022-10-19T04:36:39.080Z,18.21
2022-10-19T04:39:06.703Z,18.26
2022-10-19T04:41:33.541Z,18.18
2022-10-19T04:44:02.571Z,18.10
2022-10-19T04:46:30.419Z,18.15
2022-10-19T04:48:57.413Z,18.17
2022-10-19T04:51:24.375Z,18.15
2022-10-19T04:53:51.671Z,18.14
2022-10-19T04:56:23.321Z,18.19
2022-10-19T04:58:49.937Z,18.15
2022-10-19T05:01:19.809Z,18.09
2022-10-19T05:03:47.604Z,18.07
2022-10-19T05:06:15.670Z,18.12
2022-10-19T05:08:42.168Z,18.08
2022-10-19T05:11:14.374Z,18.11
2022-10-19T05:13:42.044Z,18.05
2022-10-19T05:16:13.225Z,17.92
2022-10-19T05:18:40.409Z,18.03
2022-10-19T05:21:10.346Z,17.89
2022-10-19T05:23:37.791Z,17.88
2022-10-19T05:26:10.291Z,17.94
2022-10-19T05:28:37.575Z,18.03
2022-10-19T05:31:15.292Z,18.06
2022-10-19T05:33:42.889Z,18.05
2022-10-19T05:36:16.735Z,18.09
2022-10-19T05:38:44.687Z,18.08
2022-10-19T05:41:11.316Z,18.10
2022-10-19T05:43:37.921Z,18.07
2022-10-19T05:46:10.653Z,18.13
2022-10-19T05:48:37.314Z,18.04
2022-10-19T05:51:05.780Z,18.07
2022-10-19T05:53:33.953Z,18.09
2022-10-19T05:56:00.828Z,18.05
2022-10-19T05:58:30.005Z,18.08
2022-10-19T06:01:00.780Z,18.10
2022-10-19T06:03:28.483Z,18.10
2022-10-19T06:05:58.868Z,18.08
2022-10-19T06:08:25.672Z,18.10
2022-10-19T06:10:52.324Z,18.13
2022-10-19T06:13:20.165Z,18.09
2022-10-19T06:15:51.217Z,18.06
2022-10-19T06:18:17.849Z,18.18
2022-10-19T06:20:45.611Z,18.15
2022-10-19T06:23:12.221Z,18.22
2022-10-19T06:25:38.770Z,18.27
2022-10-19T06:28:05.396Z,18.19
2022-10-19T06:30:31.980Z,18.26
2022-10-19T06:32:58.965Z,18.38
2022-10-19T06:35:25.703Z,18.43
2022-10-19T06:37:52.346Z,18.40
2022-10-19T06:40:18.996Z,18.38
2022-10-19T06:42:45.715Z,18.40
2022-10-19T06:45:12.253Z,18.33
2022-10-19T06:47:39.042Z,18.42
2022-10-19T06:50:07.299Z,18.45
2022-10-19T06:52:35.320Z,18.50
2022-10-19T06:55:02.707Z,18.51
2022-10-19T06:57:29.362Z,18.49
2022-10-19T06:59:55.832Z,18.58
2022-10-19T07:02:22.909Z,18.60
2022-10-19T07:04:49.756Z,18.72
2022-10-19T07:07:16.540Z,18.69
2022-10-19T07:09:47.749Z,18.70
2022-10-19T07:12:14.219Z,18.76
2022-10-19T07:14:40.739Z,18.79
2022-10-19T07:17:08.042Z,18.76
2022-10-19T07:19:34.655Z,18.78
2022-10-19T07:22:01.273Z,18.94
2022-10-19T07:24:27.886Z,19.01
2022-10-19T07:26:54.411Z,19.10
2022-10-19T07:29:21.400Z,19.17
2022-10-19T07:31:48.145Z,19.28
2022-10-19T07:34:15.102Z,19.40
2022-10-19T07:36:45.223Z,19.50
2022-10-19T07:39:12.020Z,19.46
2022-10-19T07:41:39.103Z,19.66
2022-10-19T07:44:05.828Z,19.79
2022-10-19T07:46:32.742Z,19.45
2022-10-19T07:49:00.769Z,19.83
2022-10-19T07:54:03.174Z,19.88
2022-10-19T07:56:30.143Z,19.97
2022-10-19T07:58:59.267Z,20.03
2022-10-19T08:01:28.960Z,20.07
2022-10-19T08:04:43.171Z,19.99
2022-10-19T08:06:44.169Z,20.19
2022-10-19T08:09:15.583Z,20.19
2022-10-19T08:11:49.409Z,20.17
2022-10-19T08:14:15.871Z,20.38
2022-10-19T08:16:42.329Z,20.31
2022-10-19T08:19:12.612Z,20.62
2022-10-19T08:21:42.069Z,20.75
2022-10-19T08:24:09.879Z,20.87
2022-10-19T08:26:38.802Z,21.01
2022-10-19T08:29:14.500Z,21.09
2022-10-19T08:31:42.905Z,21.07
2022-10-19T08:34:09.980Z,21.14
2022-10-19T08:36:36.508Z,21.06
2022-10-19T08:39:06.001Z,20.93
2022-10-19T08:42:01.925Z,21.11
2022-10-19T08:44:34.396Z,20.92
2022-10-19T08:47:25.712Z,20.77
2022-10-19T08:49:52.414Z,20.84
2022-10-19T08:52:34.254Z,20.93
2022-10-19T08:55:15.127Z,21.04
2022-10-19T08:58:23.903Z,21.16
2022-10-19T09:01:10.992Z,21.27
2022-10-19T09:04:04.626Z,21.13
2022-10-19T09:06:51.386Z,21.15
2022-10-19T09:09:20.883Z,20.80
2022-10-19T09:11:51.090Z,20.98
2022-10-19T09:14:48.823Z,21.07
2022-10-19T09:17:16.267Z,20.92
2022-10-19T09:19:42.982Z,21.12
2022-10-19T09:22:26.274Z,20.96
2022-10-19T09:25:00.756Z,20.97
2022-10-19T09:27:38.645Z,21.03
2022-10-19T09:30:20.812Z,21.08
2022-10-19T09:32:51.681Z,21.27
2022-10-19T09:35:27.968Z,21.30
2022-10-19T09:37:56.333Z,21.18
2022-10-19T09:40:29.155Z,21.12
2022-10-19T09:42:56.305Z,21.39
2022-10-19T09:45:40.469Z,21.54
2022-10-19T09:48:20.961Z,21.68
2022-10-19T09:51:01.365Z,21.56
2022-10-19T09:53:29.832Z,21.35
2022-10-19T09:56:04.974Z,21.57
2022-10-19T09:58:33.267Z,21.84
2022-10-19T10:01:02.417Z,21.79
2022-10-19T10:03:35.652Z,21.95
2022-10-19T10:06:13.398Z,21.93
2022-10-19T10:08:53.913Z,22.13
2022-10-19T10:11:48.314Z,22.00
2022-10-19T10:14:28.712Z,22.02
2022-10-19T10:17:17.130Z,22.02
2022-10-19T10:20:05.907Z,21.72
2022-10-19T10:22:35.886Z,21.79
2022-10-19T10:25:13.549Z,21.64
2022-10-19T10:27:40.116Z,21.58
2022-10-19T10:30:16.841Z,21.63
2022-10-19T10:32:49.916Z,21.62
2022-10-19T10:35:18.796Z,21.84
2022-10-19T10:37:47.082Z,21.65
2022-10-19T10:40:24.147Z,21.94
2022-10-19T10:42:54.876Z,21.95
2022-10-19T10:45:46.731Z,22.07
2022-10-19T10:48:26.981Z,22.13
2022-10-19T10:50:53.852Z,22.10
2022-10-19T10:53:32.505Z,22.09
2022-10-19T10:56:00.639Z,21.93
2022-10-19T10:58:48.097Z,21.97
2022-10-19T11:01:30.020Z,21.80
2022-10-19T11:04:22.311Z,21.64
2022-10-19T11:06:59.044Z,21.60
2022-10-19T11:09:36.347Z,21.69
2022-10-19T11:12:06.553Z,21.64
2022-10-19T11:14:38.626Z,22.03
2022-10-19T11:17:31.852Z,21.86
2022-10-19T11:19:58.650Z,21.35
2022-10-19T11:22:40.061Z,21.59
2022-10-19T11:25:21.661Z,21.42
2022-10-19T11:28:00.334Z,21.57
2022-10-19T11:30:30.493Z,21.53
2022-10-19T11:33:12.017Z,21.66
2022-10-19T11:35:53.610Z,21.87
2022-10-19T11:38:43.504Z,22.07
2022-10-19T11:41:22.046Z,22.04
2022-10-19T11:44:13.444Z,22.04
2022-10-19T11:46:55.240Z,22.06
2022-10-19T11:49:39.831Z,22.16
2022-10-19T11:52:23.837Z,22.46
2022-10-19T11:55:18.005Z,22.51
2022-10-19T11:57:57.379Z,22.62
2022-10-19T12:00:39.924Z,22.85
2022-10-19T12:03:42.535Z,22.86
2022-10-19T12:06:18.239Z,22.86
2022-10-19T12:09:06.553Z,22.93
2022-10-19T12:11:51.477Z,23.01
2022-10-19T12:14:25.608Z,22.82
2022-10-19T12:16:56.905Z,22.98
2022-10-19T12:19:33.250Z,23.20
2022-10-19T12:22:03.622Z,23.38
2022-10-19T12:24:33.848Z,23.50
2022-10-19T12:27:01.853Z,23.66
2022-10-19T12:29:34.223Z,23.62
2022-10-19T12:32:04.619Z,23.77
2022-10-19T12:34:52.582Z,23.78
2022-10-19T12:37:33.108Z,23.76
2022-10-19T12:40:02.614Z,23.87
2022-10-19T12:42:55.331Z,23.83
2022-10-19T12:45:31.939Z,24.43
2022-10-19T12:48:10.438Z,24.45
2022-10-19T12:50:49.096Z,24.28
2022-10-19T12:56:01.978Z,24.63
2022-10-19T12:58:38.065Z,24.56
2022-10-19T13:01:07.237Z,24.90
2022-10-19T13:03:40.119Z,24.85
2022-10-19T13:06:32.644Z,25.03
2022-10-19T13:09:06.713Z,24.89
2022-10-19T13:14:13.662Z,25.04
2022-10-19T13:16:57.672Z,25.17
2022-10-19T13:19:24.753Z,25.33
2022-10-19T13:22:22.740Z,25.34
2022-10-19T13:25:11.180Z,25.44
2022-10-19T13:27:39.438Z,25.25
2022-10-19T13:30:35.234Z,25.41
2022-10-19T13:33:23.586Z,25.46
2022-10-19T13:35:59.173Z,25.34
2022-10-19T13:38:46.996Z,25.33
2022-10-19T13:41:21.427Z,25.18
2022-10-19T13:44:09.308Z,25.18
2022-10-19T13:46:56.906Z,25.02
2022-10-19T13:49:55.016Z,24.80
2022-10-19T13:52:36.808Z,24.58
2022-10-19T13:55:20.741Z,24.89
2022-10-19T13:58:18.226Z,25.05
2022-10-19T14:00:53.748Z,25.12
2022-10-19T14:03:36.141Z,25.65
2022-10-19T14:06:35.752Z,25.96
2022-10-19T14:09:28.102Z,26.43
2022-10-19T14:12:21.565Z,26.88
2022-10-19T14:14:48.017Z,27.31
2022-10-19T14:17:19.737Z,27.60
2022-10-19T14:19:50.257Z,27.69
2022-10-19T14:22:23.441Z,27.86
2022-10-19T14:24:50.311Z,28.25
2022-10-19T14:27:23.100Z,28.42
2022-10-19T14:29:52.332Z,28.51
2022-10-19T14:32:25.644Z,28.41
2022-10-19T14:34:53.599Z,28.45
2022-10-19T14:37:26.406Z,28.72
2022-10-19T14:40:04.748Z,29.07
2022-10-19T14:42:41.069Z,29.27
2022-10-19T14:45:15.181Z,29.20
2022-10-19T14:48:03.199Z,29.21
2022-10-19T14:50:51.167Z,28.77
2022-10-19T14:53:36.131Z,28.15
2022-10-19T14:56:16.119Z,27.81
2022-10-19T14:59:07.460Z,27.21
2022-10-19T15:01:35.774Z,26.93
2022-10-19T15:04:03.038Z,26.92
2022-10-19T15:06:33.531Z,26.68
2022-10-19T15:09:04.960Z,26.61
2022-10-19T15:11:38.434Z,26.49
2022-10-19T15:14:14.026Z,26.32
2022-10-19T15:16:49.059Z,26.12
2022-10-19T15:19:17.726Z,25.82
2022-10-19T15:21:44.831Z,25.73
2022-10-19T15:24:27.944Z,25.53
2022-10-19T15:27:08.406Z,25.60
2022-10-19T15:29:35.757Z,25.65
2022-10-19T15:32:21.450Z,25.65
2022-10-19T15:34:48.071Z,25.66
2022-10-19T15:37:20.627Z,25.67
2022-10-19T15:39:48.199Z,25.69
2022-10-19T15:42:23.604Z,25.62
2022-10-19T15:44:50.068Z,25.44
2022-10-19T15:47:16.496Z,25.38
2022-10-19T15:49:42.912Z,25.10
2022-10-19T15:52:21.714Z,25.06
2022-10-19T15:54:53.507Z,24.96
2022-10-19T15:57:40.445Z,24.90
2022-10-19T16:00:14.012Z,24.78
2022-10-19T16:02:40.679Z,24.66
2022-10-19T16:05:07.965Z,24.53
2022-10-19T16:07:38.442Z,24.38
2022-10-19T16:10:06.179Z,24.19
2022-10-19T16:12:32.708Z,24.14
2022-10-19T16:14:59.200Z,24.06
2022-10-19T16:17:25.712Z,23.97
2022-10-19T16:19:52.212Z,23.84
2022-10-19T16:22:18.688Z,23.80
2022-10-19T16:24:45.157Z,23.57
2022-10-19T16:27:11.615Z,23.57
2022-10-19T16:29:38.112Z,23.47
2022-10-19T16:32:04.657Z,23.38
2022-10-19T16:34:31.235Z,23.30
2022-10-19T16:37:00.454Z,23.24
2022-10-19T16:39:29.245Z,23.18
2022-10-19T16:50:35.651Z,22.69
2022-10-19T16:53:10.051Z,22.55
2022-10-19T16:55:37.623Z,22.48
2022-10-19T16:58:04.140Z,22.51
2022-10-19T17:00:30.760Z,22.44
2022-10-19T17:02:57.465Z,22.38
2022-10-19T17:05:23.966Z,22.29
2022-10-19T17:07:50.449Z,22.19
2022-10-19T17:10:16.959Z,21.98
2022-10-19T17:12:43.475Z,21.97
2022-10-19T17:17:56.492Z,21.79
2022-10-19T17:20:22.938Z,21.79
2022-10-19T17:22:51.928Z,21.75
2022-10-19T17:25:18.454Z,21.68
2022-10-19T17:27:44.925Z,21.58
2022-10-19T17:30:11.424Z,21.61
2022-10-19T17:32:38.022Z,21.54
2022-10-19T17:35:04.982Z,21.39
2022-10-19T17:37:31.478Z,21.42
2022-10-19T17:39:57.973Z,21.38
2022-10-19T17:42:24.466Z,21.41
2022-10-19T17:44:51.105Z,21.28
2022-10-19T17:47:17.596Z,21.27
2022-10-19T17:49:44.074Z,21.22
2022-10-19T17:52:10.542Z,21.12
2022-10-19T17:54:48.534Z,21.05
2022-10-19T17:57:24.154Z,21.04
2022-10-19T17:59:53.310Z,21.02
2022-10-19T18:02:20.147Z,20.99
2022-10-19T18:04:46.804Z,20.78
2022-10-19T18:07:13.276Z,20.80
2022-10-19T18:09:39.751Z,20.84
2022-10-19T18:12:07.545Z,20.78
2022-10-19T18:14:34.301Z,20.77
2022-10-19T18:17:00.743Z,20.79
2022-10-19T18:19:27.334Z,20.83
2022-10-19T18:21:53.849Z,20.69
2022-10-19T18:24:20.466Z,20.76
2022-10-19T18:26:50.026Z,20.70
2022-10-19T18:29:20.203Z,20.53
2022-10-19T18:31:47.198Z,20.50
2022-10-19T18:34:15.341Z,20.44
2022-10-19T18:36:42.593Z,20.40
2022-10-19T18:39:11.628Z,20.39
2022-10-19T18:41:38.317Z,20.40
2022-10-19T18:44:06.162Z,20.46
2022-10-19T18:46:35.767Z,20.41
2022-10-19T18:49:05.259Z,20.43
2022-10-19T18:51:31.805Z,20.41
2022-10-19T18:53:58.803Z,20.25
2022-10-19T18:56:26.746Z,20.10
2022-10-19T18:58:53.290Z,19.94
2022-10-19T19:01:25.902Z,19.87
2022-10-19T19:03:55.030Z,20.01
2022-10-19T19:06:27.435Z,20.06
2022-10-19T19:08:55.605Z,20.03
2022-10-19T19:11:33.054Z,19.99
2022-10-19T19:14:06.852Z,19.97
2022-10-19T19:16:37.423Z,19.99
2022-10-19T19:19:05.252Z,20.03
2022-10-19T19:21:33.203Z,19.92
2022-10-19T19:24:02.096Z,19.89
2022-10-19T19:26:31.900Z,19.91
2022-10-19T19:28:58.928Z,19.93
2022-10-19T19:31:26.666Z,19.96
2022-10-19T19:33:53.219Z,19.91
2022-10-19T19:36:20.503Z,19.92
2022-10-19T19:38:47.602Z,19.91
2022-10-19T19:41:15.926Z,19.92
2022-10-19T19:43:43.550Z,19.95
2022-10-19T19:46:13.790Z,19.90
2022-10-19T19:48:42.367Z,19.88
2022-10-19T19:51:11.672Z,19.86
2022-10-19T19:53:38.661Z,19.79
2022-10-19T19:56:11.016Z,19.79
2022-10-19T19:58:37.662Z,19.76
2022-10-19T20:01:12.166Z,19.66
2022-10-19T20:03:42.848Z,19.62
2022-10-19T20:06:10.154Z,19.65
2022-10-19T20:08:37.095Z,19.64
2022-10-19T20:11:13.363Z,19.64
2022-10-19T20:13:40.527Z,19.60
2022-10-19T20:16:12.538Z,19.50
2022-10-19T20:18:40.447Z,19.33
2022-10-19T20:21:06.949Z,19.30
2022-10-19T20:23:33.410Z,19.20
2022-10-19T20:25:59.894Z,19.24
2022-10-19T20:28:27.341Z,19.26
2022-10-19T20:31:12.983Z,19.30
2022-10-19T20:33:42.341Z,19.26
2022-10-19T20:36:13.093Z,19.02
2022-10-19T20:38:44.630Z,18.84
2022-10-19T20:41:11.205Z,18.53
2022-10-19T20:43:37.984Z,18.35
2022-10-19T20:46:14.270Z,18.15
2022-10-19T20:48:40.843Z,18.57
2022-10-19T20:51:27.589Z,18.71
2022-10-19T20:53:59.265Z,18.89
2022-10-19T20:56:31.741Z,18.94
2022-10-19T20:59:04.760Z,19.05
2022-10-19T21:01:33.457Z,19.17
2022-10-19T21:04:02.152Z,19.28
2022-10-19T21:06:31.442Z,19.40
2022-10-19T21:08:58.851Z,19.42
2022-10-19T21:11:28.307Z,19.52
2022-10-19T21:13:57.164Z,19.56
2022-10-19T21:16:26.057Z,19.66
2022-10-19T21:18:52.559Z,19.58
2022-10-19T21:21:20.439Z,19.57
2022-10-19T21:23:50.450Z,19.60
2022-10-19T21:26:17.356Z,19.53
2022-10-19T21:28:49.678Z,19.23
2022-10-19T21:31:17.477Z,19.23
2022-10-19T21:33:44.426Z,19.25
2022-10-19T21:36:13.248Z,19.05
2022-10-19T21:38:40.608Z,19.04
2022-10-19T21:41:11.490Z,19.25
2022-10-19T21:43:38.025Z,19.40
2022-10-19T21:46:08.404Z,19.40
2022-10-19T21:48:34.922Z,19.44
2022-10-19T21:51:28.765Z,19.45
2022-10-19T21:53:55.352Z,19.44
2022-10-19T21:56:21.921Z,19.27
2022-10-19T21:58:50.676Z,19.00
2022-10-19T22:01:19.060Z,19.04
2022-10-19T22:03:45.612Z,19.05
2022-10-19T22:06:13.220Z,19.24
2022-10-19T22:08:44.869Z,19.20
2022-10-19T22:11:13.580Z,19.32
2022-10-19T22:13:40.133Z,19.33
2022-10-19T22:16:27.232Z,19.31
2022-10-19T22:18:54.906Z,19.22
2022-10-19T22:21:28.551Z,19.38
2022-10-19T22:23:58.053Z,19.43
2022-10-19T22:26:36.504Z,19.46
2022-10-19T22:29:04.876Z,19.34
2022-10-19T22:31:32.864Z,19.10
2022-10-19T22:34:04.228Z,19.29
2022-10-19T22:36:33.233Z,19.41
2022-10-19T22:38:59.830Z,19.52
2022-10-19T22:41:26.305Z,19.61
2022-10-19T22:44:30.615Z,19.72
2022-10-19T22:47:34.612Z,19.80
2022-10-19T22:50:38.327Z,19.84
2022-10-19T22:53:04.805Z,19.83
2022-10-19T22:55:31.438Z,19.90
2022-10-19T22:57:58.009Z,19.96
2022-10-19T23:00:24.755Z,19.99
2022-10-19T23:02:51.208Z,19.94
2022-10-19T23:05:17.925Z,19.90
2022-10-19T23:07:44.468Z,19.99
2022-10-19T23:10:10.969Z,20.05
2022-10-19T23:12:37.419Z,20.06
2022-10-19T23:15:04.214Z,20.03
2022-10-19T23:17:30.685Z,19.93
2022-10-19T23:19:57.186Z,19.92
2022-10-19T23:22:23.911Z,19.96
2022-10-19T23:24:50.404Z,19.78
2022-10-19T23:27:16.882Z,19.71
2022-10-19T23:29:43.383Z,19.63
2022-10-19T23:32:09.951Z,19.75
2022-10-19T23:34:36.444Z,19.74
2022-10-19T23:37:02.922Z,19.47
2022-10-19T23:39:29.376Z,19.52
2022-10-19T23:41:55.884Z,19.22
2022-10-19T23:44:22.343Z,19.49
2022-10-19T23:46:48.867Z,19.52
2022-10-19T23:49:15.324Z,19.55
2022-10-19T23:51:41.799Z,19.63
2022-10-19T23:54:08.297Z,19.55
2022-10-19T23:56:34.812Z,19.56
2022-10-19T23:59:01.399Z,19.66
